Time;durP1;ratioP1;P1;durP2;ratioP2;P2;SDS_P1;SDS_P2;PMS_P1;PMS_P2;Temp;Humidity;BMP_temperature;BMP_pressure;BME280_temperature;BME280_humidity;BME280_pressure;Samples;Min_cycle;Max_cycle;Signal;HPM_P1;HPM_P2
2022/10/13 00:01:29;;;;;;;9.18;5.40;;;;;;;6.30;100.00;100880.27;1727682;82;20903;-58
2022/10/13 00:03:56;;;;;;;9.15;5.37;;;;;;;6.29;100.00;100881.23;1727786;81;21201;-56
2022/10/13 00:06:24;;;;;;;9.05;5.35;;;;;;;6.25;100.00;100876.81;1730244;81;21087;-56
2022/10/13 00:08:51;;;;;;;7.62;4.95;;;;;;;6.22;100.00;100888.73;1730398;81;20983;-56
2022/10/13 00:11:22;;;;;;;6.47;4.05;;;;;;;6.19;100.00;100886.42;1730185;81;21492;-58
2022/10/13 00:13:49;;;;;;;7.80;4.87;;;;;;;6.23;100.00;100880.48;1729644;82;21544;-58
2022/10/13 00:16:18;;;;;;;7.47;4.42;;;;;;;6.22;100.00;100880.16;1730103;82;21283;-56
2022/10/13 00:18:47;;;;;;;7.60;3.65;;;;;;;6.24;100.00;100880.81;1699935;84;21061;-56
2022/10/13 00:21:18;;;;;;;8.75;3.75;;;;;;;6.27;100.00;100880.55;1730487;82;20986;-55
2022/10/13 00:23:46;;;;;;;7.53;3.52;;;;;;;6.30;100.00;100886.75;1730135;82;21011;-56
2022/10/13 00:26:15;;;;;;;7.05;3.67;;;;;;;6.33;100.00;100876.11;1699350;84;21563;-57
2022/10/13 00:28:43;;;;;;;6.70;3.60;;;;;;;6.33;100.00;100878.70;1730467;81;21872;-56
2022/10/13 00:31:28;;;;;;;7.05;4.17;;;;;;;6.36;100.00;100882.77;1730233;82;21077;-56
2022/10/13 00:33:55;;;;;;;8.30;4.22;;;;;;;6.39;100.00;100881.20;1730342;82;21911;-56
2022/10/13 00:36:23;;;;;;;6.55;3.87;;;;;;;6.43;100.00;100880.77;1730125;82;20962;-56
2022/10/13 00:38:51;;;;;;;6.53;3.72;;;;;;;6.44;100.00;100881.13;1730079;82;20967;-56
2022/10/13 00:41:20;;;;;;;5.72;3.50;;;;;;;6.49;100.00;100885.40;1729710;82;21282;-57
2022/10/13 00:44:04;;;;;;;6.92;3.47;;;;;;;6.60;100.00;100887.00;1730078;82;21062;-55
2022/10/13 00:46:35;;;;;;;7.50;4.60;;;;;;;6.63;100.00;100884.59;1730249;82;21512;-55
2022/10/13 00:49:09;;;;;;;8.43;5.10;;;;;;;6.66;100.00;100885.61;1699146;84;22234;-60
2022/10/13 00:51:42;;;;;;;8.63;5.33;;;;;;;6.66;100.00;100885.61;1730081;82;21085;-55
2022/10/13 00:54:11;;;;;;;8.68;4.97;;;;;;;6.71;100.00;100886.83;1730105;82;25105;-55
2022/10/13 00:56:38;;;;;;;8.40;4.97;;;;;;;6.70;100.00;100881.77;1730064;82;21520;-56
2022/10/13 00:59:13;;;;;;;8.65;4.97;;;;;;;6.66;100.00;100880.42;1699383;84;21026;-67
2022/10/13 01:01:40;;;;;;;9.03;5.28;;;;;;;6.63;100.00;100884.59;1730194;82;21719;-55
2022/10/13 01:04:09;;;;;;;7.67;5.00;;;;;;;6.63;100.00;100878.95;1729475;82;21489;-56
2022/10/13 01:06:36;;;;;;;8.20;4.95;;;;;;;6.58;100.00;100881.95;1727605;83;22542;-56
2022/10/13 01:09:03;;;;;;;8.28;4.55;;;;;;;6.54;100.00;100879.30;1727547;83;21007;-56
2022/10/13 01:12:12;;;;;;;9.20;4.72;;;;;;;6.51;100.00;100876.99;1727248;83;20919;-56
2022/10/13 01:14:53;;;;;;;8.73;5.35;;;;;;;6.51;100.00;100876.17;1725248;83;20983;-61
2022/10/13 01:17:57;;;;;;;9.63;5.40;;;;;;;6.60;100.00;100878.42;1702993;83;20908;-57
2022/10/13 01:21:02;;;;;;;10.58;6.35;;;;;;;6.58;100.00;100874.17;1696517;84;22325;-57
2022/10/13 01:24:14;;;;;;;7.47;5.10;;;;;;;6.62;100.00;100875.20;1727100;82;20955;-61
2022/10/13 01:27:02;;;;;;;10.10;6.30;;;;;;;6.65;100.00;100872.33;1727996;83;20999;-58
2022/10/13 01:29:55;;;;;;;9.20;6.20;;;;;;;6.67;100.00;100871.72;1727370;82;21005;-57
2022/10/13 01:32:31;;;;;;;9.00;5.67;;;;;;;6.67;100.00;100874.31;1726725;83;21022;-58
2022/10/13 01:35:13;;;;;;;9.95;6.40;;;;;;;6.68;100.00;100871.56;1727819;83;21246;-56
2022/10/13 01:37:57;;;;;;;8.80;6.22;;;;;;;6.68;100.00;100877.23;1697024;84;21106;-56
2022/10/13 01:40:42;;;;;;;11.25;6.85;;;;;;;6.68;100.00;100868.16;1727298;83;21454;-56
2022/10/13 01:43:22;;;;;;;12.28;7.35;;;;;;;6.68;100.00;100865.57;1727687;83;21105;-56
2022/10/13 01:46:10;;;;;;;11.50;7.30;;;;;;;6.66;100.00;100873.95;1727358;83;20903;-58
2022/10/13 01:48:38;;;;;;;14.65;8.30;;;;;;;6.65;100.00;100871.84;1727483;83;21254;-57
2022/10/13 01:51:08;;;;;;;13.75;8.23;;;;;;;6.63;100.00;100866.45;1727703;83;21002;-56
2022/10/13 01:53:36;;;;;;;11.55;7.35;;;;;;;6.61;100.00;100875.67;1727375;82;20970;-57
2022/10/13 01:56:05;;;;;;;13.43;7.95;;;;;;;6.60;100.00;100872.76;1697007;84;21389;-56
2022/10/13 01:58:34;;;;;;;14.23;7.35;;;;;;;6.62;100.00;100876.48;1727837;83;21098;-56
2022/10/13 02:01:31;;;;;;;11.93;7.17;;;;;;;6.57;100.00;100876.44;1727943;83;21314;-56
2022/10/13 02:04:18;;;;;;;12.53;7.50;;;;;;;6.51;100.00;100872.30;1725619;82;21493;-56
2022/10/13 02:06:58;;;;;;;10.63;6.90;;;;;;;6.48;100.00;100865.64;1708616;84;21015;-67
2022/10/13 02:09:34;;;;;;;11.65;7.17;;;;;;;6.48;100.00;100871.30;1727561;83;21010;-56
2022/10/13 02:12:20;;;;;;;11.33;7.17;;;;;;;6.47;100.00;100878.23;1697139;84;20947;-57
2022/10/13 02:14:48;;;;;;;11.25;6.70;;;;;;;6.49;100.00;100875.03;1725075;83;21418;-56
2022/10/13 02:17:15;;;;;;;10.35;6.22;;;;;;;6.48;100.00;100878.59;1727741;82;21047;-56
2022/10/13 02:19:44;;;;;;;10.20;5.62;;;;;;;6.44;100.00;100875.95;1697057;84;22223;-56
2022/10/13 02:22:12;;;;;;;11.40;6.62;;;;;;;6.40;100.00;100877.16;1727560;83;21007;-57
2022/10/13 02:24:39;;;;;;;8.15;5.28;;;;;;;6.35;100.00;100881.95;1727082;82;21015;-63
2022/10/13 02:27:08;;;;;;;10.60;6.45;;;;;;;6.35;100.00;100884.55;1697168;84;21384;-56
2022/10/13 02:29:51;;;;;;;11.93;6.30;;;;;;;6.30;100.00;100886.75;1727477;82;20971;-56
2022/10/13 02:32:19;;;;;;;10.13;5.67;;;;;;;6.28;100.00;100887.34;1727016;83;21074;-67
2022/10/13 02:34:46;;;;;;;12.35;5.95;;;;;;;6.22;100.00;100892.62;1727795;83;21520;-56
2022/10/13 02:37:12;;;;;;;12.58;6.53;;;;;;;6.20;100.00;100895.00;1708893;84;20999;-56
2022/10/13 02:39:40;;;;;;;7.78;4.97;;;;;;;6.21;100.00;100896.17;1727862;83;21163;-57
2022/10/13 02:42:09;;;;;;;9.63;5.10;;;;;;;6.27;100.00;100902.06;1696633;84;20990;-63
2022/10/13 02:44:38;;;;;;;11.05;6.08;;;;;;;6.26;100.00;100900.44;1727271;83;20983;-56
2022/10/13 02:47:05;;;;;;;7.75;5.28;;;;;;;6.26;100.00;100895.75;1727773;83;20971;-56
2022/10/13 02:49:32;;;;;;;9.68;5.50;;;;;;;6.23;100.00;100894.73;1727764;83;20899;-56
2022/10/13 02:52:00;;;;;;;8.05;4.80;;;;;;;6.25;100.00;100896.69;1727761;82;21156;-55
2022/10/13 02:54:27;;;;;;;7.12;4.78;;;;;;;6.20;100.00;100890.63;1727064;82;20951;-56
2022/10/13 02:56:54;;;;;;;7.55;4.90;;;;;;;6.12;100.00;100896.98;1727643;83;20983;-56
2022/10/13 02:59:23;;;;;;;8.80;4.85;;;;;;;6.11;100.00;100897.13;1727932;83;20909;-56
2022/10/13 03:01:51;;;;;;;7.72;5.12;;;;;;;5.99;100.00;100895.17;1727543;82;20868;-63
2022/10/13 03:04:18;;;;;;;10.23;4.65;;;;;;;5.91;100.00;100904.88;1727389;82;21164;-57
2022/10/13 03:06:45;;;;;;;6.80;4.42;;;;;;;5.79;100.00;100910.64;1727863;83;20943;-56
2022/10/13 03:09:12;;;;;;;9.10;4.70;;;;;;;5.81;100.00;100911.34;1727529;83;21033;-60
2022/10/13 03:11:42;;;;;;;7.62;4.60;;;;;;;5.73;100.00;100910.39;1696651;84;21003;-66
2022/10/13 03:14:10;;;;;;;10.05;5.00;;;;;;;5.64;100.00;100911.19;1727659;83;21007;-56
2022/10/13 03:16:38;;;;;;;7.55;5.00;;;;;;;5.54;100.00;100910.70;1696870;84;20997;-58
2022/10/13 03:19:07;;;;;;;7.53;5.12;;;;;;;5.47;100.00;100905.73;1727708;82;20903;-56
2022/10/13 03:21:37;;;;;;;8.38;4.37;;;;;;;5.41;100.00;100914.00;1696485;84;21081;-58
2022/10/13 03:24:04;;;;;;;7.35;4.97;;;;;;;5.35;100.00;100914.56;1727811;83;20998;-57
2022/10/13 03:26:32;;;;;;;6.90;4.55;;;;;;;5.30;100.00;100911.08;1727690;83;21504;-56
2022/10/13 03:28:59;;;;;;;8.88;5.20;;;;;;;5.27;100.00;100914.41;1727640;83;21881;-56
2022/10/13 03:31:26;;;;;;;8.85;5.37;;;;;;;5.19;100.00;100912.48;1726709;83;20926;-57
2022/10/13 03:33:55;;;;;;;10.60;5.83;;;;;;;5.15;100.00;100911.56;1696216;84;21069;-58
2022/10/13 03:36:22;;;;;;;8.15;5.03;;;;;;;5.09;100.00;100916.80;1727582;83;20983;-56
2022/10/13 03:38:50;;;;;;;9.08;5.53;;;;;;;5.00;100.00;100914.53;1727851;83;21521;-57
2022/10/13 03:41:17;;;;;;;7.50;4.67;;;;;;;4.96;100.00;100917.00;1727024;83;21615;-57
2022/10/13 03:43:46;;;;;;;8.30;4.87;;;;;;;4.96;100.00;100918.77;1727469;82;21042;-57
2022/10/13 03:46:15;;;;;;;7.85;4.78;;;;;;;4.91;100.00;100915.30;1727461;83;20990;-56
2022/10/13 03:48:43;;;;;;;9.43;4.70;;;;;;;4.89;100.00;100910.75;1697232;84;21050;-57
2022/10/13 03:51:16;;;;;;;7.40;4.75;;;;;;;4.90;100.00;100920.12;1727194;82;21555;-57
2022/10/13 03:53:48;;;;;;;7.22;4.50;;;;;;;4.90;100.00;100916.25;1725707;83;21909;-56
2022/10/13 03:56:18;;;;;;;7.62;4.53;;;;;;;4.92;100.00;100919.50;1727677;83;21541;-56
2022/10/13 03:58:52;;;;;;;8.95;4.70;;;;;;;4.96;100.00;100920.88;1695773;84;21138;-56
2022/10/13 04:01:16;;;;;;;7.70;4.28;;;;;;;5.05;100.00;100918.01;1727604;82;21037;-56
2022/10/13 04:03:44;;;;;;;8.40;4.37;;;;;;;5.16;100.00;100917.91;1727672;83;21102;-56
2022/10/13 04:06:11;;;;;;;6.62;3.70;;;;;;;5.24;100.00;100909.02;1729240;82;21271;-56
2022/10/13 04:08:40;;;;;;;8.73;4.60;;;;;;;5.34;100.00;100914.19;1699154;84;20993;-66
2022/10/13 04:11:11;;;;;;;12.25;4.50;;;;;;;5.42;100.00;100907.91;1730459;82;21504;-56
2022/10/13 04:13:41;;;;;;;10.20;4.90;;;;;;;5.54;100.00;100906.83;1730086;82;20994;-56
2022/10/13 04:16:15;;;;;;;7.83;4.70;;;;;;;5.66;100.00;100917.05;1730073;82;20967;-56
2022/10/13 04:18:42;;;;;;;7.35;3.92;;;;;;;5.77;100.00;100915.16;1729737;81;21273;-59
2022/10/13 04:21:11;;;;;;;8.50;4.78;;;;;;;5.92;100.00;100912.17;1729971;82;21322;-56
2022/10/13 04:23:39;;;;;;;6.67;4.60;;;;;;;6.07;100.00;100913.41;1730156;81;21049;-56
2022/10/13 04:26:06;;;;;;;10.43;4.78;;;;;;;6.10;100.00;100915.73;1730264;82;20951;-56
2022/10/13 04:28:36;;;;;;;9.15;4.72;;;;;;;6.16;100.00;100915.16;1729669;82;20988;-59
2022/10/13 04:31:03;;;;;;;9.85;5.00;;;;;;;6.22;100.00;100924.98;1730263;82;22095;-58
2022/10/13 04:33:30;;;;;;;8.05;4.22;;;;;;;6.34;100.00;100916.58;1730302;82;20999;-56
2022/10/13 04:35:58;;;;;;;9.28;4.55;;;;;;;6.51;100.00;100924.91;1730194;82;20951;-58
2022/10/13 04:38:25;;;;;;;7.03;4.20;;;;;;;6.66;100.00;100932.23;1701204;82;20998;-59
2022/10/13 04:40:53;;;;;;;8.30;4.65;;;;;;;6.83;100.00;100934.11;1729884;82;21547;-59
2022/10/13 04:43:20;;;;;;;8.43;5.12;;;;;;;6.99;100.00;100932.20;1730243;82;22187;-56
2022/10/13 04:45:48;;;;;;;8.15;5.30;;;;;;;7.11;100.00;100934.12;1730066;81;21037;-57
2022/10/13 04:48:15;;;;;;;8.33;5.03;;;;;;;7.23;100.00;100940.73;1730206;82;21022;-56
2022/10/13 04:50:42;;;;;;;7.90;4.78;;;;;;;7.29;100.00;100943.58;1729807;82;20975;-68
2022/10/13 04:53:09;;;;;;;7.50;4.50;;;;;;;7.43;100.00;100942.77;1730303;82;21354;-57
2022/10/13 04:55:36;;;;;;;8.87;4.33;;;;;;;7.63;100.00;100948.65;1730304;82;21104;-57
2022/10/13 04:58:03;;;;;;;8.00;4.53;;;;;;;7.84;100.00;100941.86;1730183;82;21238;-57
2022/10/13 05:00:30;;;;;;;8.77;4.60;;;;;;;8.10;100.00;100941.93;1730155;82;21303;-67
2022/10/13 05:02:57;;;;;;;9.23;5.10;;;;;;;8.35;100.00;100937.27;1729776;82;21356;-57
2022/10/13 05:05:25;;;;;;;7.83;3.97;;;;;;;8.58;100.00;100947.19;1730254;82;21247;-57
2022/10/13 05:07:54;;;;;;;6.77;4.27;;;;;;;8.76;100.00;100944.05;1699688;84;21189;-57
2022/10/13 05:10:22;;;;;;;7.90;4.70;;;;;;;8.93;100.00;100948.35;1730306;82;21693;-59
2022/10/13 05:12:51;;;;;;;11.77;4.30;;;;;;;9.03;100.00;100944.84;1699102;84;21241;-57
2022/10/13 05:15:19;;;;;;;8.80;3.67;;;;;;;9.22;100.00;100948.48;1730402;82;21513;-57
2022/10/13 05:17:46;;;;;;;6.87;3.97;;;;;;;9.42;100.00;100945.94;1699708;84;21772;-57
2022/10/13 05:20:16;;;;;;;7.27;4.17;;;;;;;9.74;100.00;100947.81;1730206;82;21186;-57
2022/10/13 05:22:44;;;;;;;6.53;4.10;;;;;;;10.03;100.00;100949.63;1729615;82;21752;-65
2022/10/13 05:25:11;;;;;;;6.40;3.87;;;;;;;10.62;100.00;100951.58;1730302;81;21749;-58
2022/10/13 05:27:39;;;;;;;6.83;3.80;;;;;;;10.89;100.00;100953.78;1730285;82;21421;-58
2022/10/13 05:30:09;;;;;;;7.03;4.43;;;;;;;10.89;100.00;100953.78;1699991;84;21466;-57
2022/10/13 05:32:37;;;;;;;7.93;4.97;;;;;;;11.11;100.00;100950.13;1730024;82;21690;-67
2022/10/13 05:35:06;;;;;;;12.93;4.67;;;;;;;11.26;100.00;100952.34;1730289;82;22072;-57
2022/10/13 05:37:34;;;;;;;11.30;7.60;;;;;;;11.43;100.00;100953.06;1730333;82;21645;-57
2022/10/13 05:40:00;;;;;;;9.83;7.07;;;;;;;11.71;100.00;100961.24;1730541;82;21007;-57
2022/10/13 05:42:28;;;;;;;10.90;7.10;;;;;;;11.97;100.00;100963.55;1730592;82;21512;-68
2022/10/13 05:44:57;;;;;;;9.27;5.70;;;;;;;12.25;100.00;100962.50;1699101;84;20943;-58
2022/10/13 05:47:27;;;;;;;9.33;5.90;;;;;;;12.48;100.00;100960.34;1730210;82;20982;-57
2022/10/13 05:49:54;;;;;;;8.80;5.77;;;;;;;12.64;100.00;100964.91;1730341;82;21022;-57
2022/10/13 05:52:22;;;;;;;7.10;4.90;;;;;;;12.82;100.00;100961.14;1730518;82;20995;-57
2022/10/13 05:54:55;;;;;;;22.47;14.70;;;;;;;13.04;100.00;100968.08;1699069;84;21018;-66
2022/10/13 05:57:32;;;;;;;51.57;31.53;;;;;;;13.18;100.00;100966.42;1730767;82;21234;-58
2022/10/13 06:00:08;;;;;;;62.33;39.27;;;;;;;13.14;100.00;100966.48;1730321;82;21575;-57
2022/10/13 06:02:59;;;;;;;62.70;41.27;;;;;;;13.19;100.00;100977.23;1700544;84;20938;-58
2022/10/13 06:05:27;;;;;;;38.53;24.97;;;;;;;13.54;100.00;100977.47;1730399;82;21497;-57
2022/10/13 06:07:56;;;;;;;36.37;24.73;;;;;;;13.94;100.00;100973.46;1699788;84;20998;-58
2022/10/13 06:10:25;;;;;;;20.80;14.57;;;;;;;14.15;100.00;100973.94;1729926;82;21062;-62
2022/10/13 06:12:51;;;;;;;13.63;9.70;;;;;;;14.27;100.00;100972.92;1730487;82;21367;-57
2022/10/13 06:15:20;;;;;;;9.77;7.23;;;;;;;14.46;100.00;100974.08;1730428;82;21421;-57
2022/10/13 06:17:48;;;;;;;9.87;6.40;;;;;;;14.66;100.00;100973.77;1730374;82;20996;-57
2022/10/13 06:20:15;;;;;;;10.57;6.67;;;;;;;14.76;100.00;100970.27;1730509;82;21074;-60
2022/10/13 06:22:42;;;;;;;8.60;6.60;;;;;;;14.82;100.00;100974.77;1699469;84;21221;-57
2022/10/13 06:25:11;;;;;;;9.17;5.97;;;;;;;14.90;100.00;100972.48;1730133;82;21489;-57
2022/10/13 06:27:39;;;;;;;12.17;6.53;;;;;;;14.96;100.00;100972.19;1730351;82;20939;-57
2022/10/13 06:30:07;;;;;;;8.20;5.33;;;;;;;15.08;100.00;100968.84;1730567;82;21034;-57
2022/10/13 06:32:36;;;;;;;9.47;5.90;;;;;;;15.49;100.00;100967.99;1730266;82;20977;-58
2022/10/13 06:35:03;;;;;;;7.80;5.80;;;;;;;16.18;100.00;100972.17;1730430;82;21260;-57
2022/10/13 06:37:30;;;;;;;9.47;6.20;;;;;;;16.56;100.00;100968.10;1730619;82;20968;-59
2022/10/13 06:39:59;;;;;;;8.77;6.17;;;;;;;16.72;100.00;100974.24;1730137;82;21415;-66
2022/10/13 06:42:29;;;;;;;10.57;7.77;;;;;;;16.74;100.00;100977.48;1730628;82;21569;-57
2022/10/13 06:45:10;;;;;;;11.50;7.27;;;;;;;16.68;100.00;100977.79;1730221;82;20939;-57
2022/10/13 06:47:39;;;;;;;11.13;6.47;;;;;;;16.48;100.00;100975.70;1699440;84;22333;-64
2022/10/13 06:50:07;;;;;;;10.57;7.27;;;;;;;16.40;100.00;100979.83;1730234;82;21141;-57
2022/10/13 06:52:36;;;;;;;9.50;6.40;;;;;;;16.18;100.00;100981.38;1699571;84;20999;-57
2022/10/13 06:55:04;;;;;;;12.60;7.40;;;;;;;15.87;100.00;100983.24;1730230;81;20935;-58
2022/10/13 06:57:33;;;;;;;10.73;7.20;;;;;;;15.73;100.00;100979.80;1729991;82;21441;-59
2022/10/13 07:00:02;;;;;;;11.67;6.50;;;;;;;15.70;100.00;100982.82;1730764;82;21290;-58
2022/10/13 07:02:29;;;;;;;9.17;6.63;;;;;;;15.73;100.00;100977.17;1730294;82;20939;-57
2022/10/13 07:04:56;;;;;;;7.77;6.50;;;;;;;15.78;100.00;100976.06;1730252;82;21020;-57
2022/10/13 07:07:24;;;;;;;10.07;6.50;;;;;;;15.92;100.00;100981.35;1730417;82;20994;-66
2022/10/13 07:09:51;;;;;;;9.17;6.20;;;;;;;16.00;100.00;100986.41;1729953;81;21000;-58
2022/10/13 07:12:19;;;;;;;10.47;6.30;;;;;;;16.19;100.00;100979.55;1730429;82;21332;-58
2022/10/13 07:14:47;;;;;;;8.57;6.10;;;;;;;16.41;100.00;100987.55;1730537;82;21055;-59
2022/10/13 07:17:16;;;;;;;9.73;6.63;;;;;;;16.67;100.00;100980.13;1699608;84;20959;-57
2022/10/13 07:19:47;;;;;;;7.97;6.20;;;;;;;17.00;100.00;100977.94;1729921;82;21046;-67
2022/10/13 07:22:14;;;;;;;7.70;5.87;;;;;;;17.34;100.00;100981.25;1699609;84;21028;-57
2022/10/13 07:24:41;;;;;;;8.77;6.57;;;;;;;17.72;100.00;100982.06;1730250;82;21214;-57
2022/10/13 07:27:08;;;;;;;12.07;6.30;;;;;;;18.04;100.00;100982.09;1730531;82;21013;-57
2022/10/13 07:29:35;;;;;;;9.13;5.73;;;;;;;18.23;100.00;100979.81;1730289;82;21055;-58
2022/10/13 07:32:03;;;;;;;10.57;5.93;;;;;;;18.24;100.00;100976.66;1729788;82;20911;-60
2022/10/13 07:34:30;;;;;;;8.80;6.73;;;;;;;18.17;100.00;100978.02;1730629;82;21025;-57
2022/10/13 07:36:56;;;;;;;10.97;6.37;;;;;;;18.01;100.00;100982.52;1730465;81;21264;-57
2022/10/13 07:39:23;;;;;;;9.07;5.87;;;;;;;17.86;100.00;100977.55;1730355;82;22383;-58
2022/10/13 07:41:50;;;;;;;7.70;5.53;;;;;;;17.74;100.00;100980.03;1730524;82;20856;-58
2022/10/13 07:44:17;;;;;;;9.83;6.60;;;;;;;17.94;100.00;100978.60;1730079;82;20935;-65
2022/10/13 07:46:45;;;;;;;8.63;5.30;;;;;;;18.36;100.00;100972.80;1730367;82;21567;-59
2022/10/13 07:49:12;;;;;;;8.20;5.77;;;;;;;18.89;100.00;100967.02;1730495;82;21289;-58
2022/10/13 07:51:40;;;;;;;6.77;4.90;;;;;;;19.46;98.28;100959.59;1730093;82;20994;-58
2022/10/13 07:54:08;;;;;;;8.73;4.90;;;;;;;20.02;89.66;100953.09;1730597;82;20933;-58
2022/10/13 07:56:36;;;;;;;7.90;4.90;;;;;;;20.68;85.28;100958.30;1729688;82;21047;-58
2022/10/13 07:59:04;;;;;;;8.83;5.37;;;;;;;21.46;80.01;100957.75;1730432;81;21639;-59
2022/10/13 08:01:32;;;;;;;8.27;4.83;;;;;;;22.26;67.65;100954.56;1730883;82;21160;-58
2022/10/13 08:04:00;;;;;;;7.57;5.50;;;;;;;22.64;62.94;100948.98;1730235;82;20987;-58
2022/10/13 08:06:27;;;;;;;9.73;4.83;;;;;;;22.97;58.07;100954.21;1729797;82;20899;-61
2022/10/13 08:08:59;;;;;;;7.08;4.12;;;;;;;22.87;56.02;100954.05;1699582;84;21336;-58
2022/10/13 08:11:26;;;;;;;7.20;3.40;;;;;;;23.00;52.05;100951.59;1730346;82;21039;-58
2022/10/13 08:13:54;;;;;;;5.35;2.60;;;;;;;23.39;50.98;100952.27;1730382;82;21268;-58
2022/10/13 08:16:21;;;;;;;4.20;2.35;;;;;;;23.59;43.28;100953.51;1730199;82;21382;-68
2022/10/13 08:18:49;;;;;;;3.40;1.95;;;;;;;23.31;40.29;100954.05;1730171;82;20924;-60
2022/10/13 08:21:17;;;;;;;4.10;2.60;;;;;;;22.96;41.18;100959.26;1730317;82;20978;-58
2022/10/13 08:23:45;;;;;;;5.42;2.58;;;;;;;22.89;40.70;100962.59;1730297;82;21539;-59
2022/10/13 08:26:24;;;;;;;4.73;2.40;;;;;;;22.52;40.69;100961.05;1730585;82;21239;-58
2022/10/13 08:28:52;;;;;;;4.23;2.10;;;;;;;22.13;41.75;100976.93;1730344;82;21009;-60
2022/10/13 08:31:19;;;;;;;4.60;2.50;;;;;;;21.96;41.67;100974.78;1730557;82;21462;-58
2022/10/13 08:33:47;;;;;;;4.37;2.20;;;;;;;21.97;43.09;100977.22;1730167;82;20943;-58
2022/10/13 08:36:16;;;;;;;7.60;2.57;;;;;;;22.05;41.64;100978.14;1730257;82;20959;-68
2022/10/13 08:38:44;;;;;;;4.63;2.20;;;;;;;21.80;42.02;100971.88;1730208;82;21222;-58
2022/10/13 08:41:25;;;;;;;4.40;2.33;;;;;;;21.64;43.15;100974.00;1730334;82;21564;-58
2022/10/13 08:43:59;;;;;;;4.30;2.60;;;;;;;21.44;43.73;100973.13;1698642;84;21059;-58
2022/10/13 08:46:29;;;;;;;4.73;2.40;;;;;;;21.39;44.95;100971.68;1729922;82;22081;-58
2022/10/13 08:48:56;;;;;;;5.40;2.10;;;;;;;21.72;43.74;100963.52;1730233;82;21050;-58
2022/10/13 08:51:24;;;;;;;4.27;2.03;;;;;;;21.93;42.46;100965.44;1730295;82;21156;-60
2022/10/13 08:53:53;;;;;;;4.57;2.00;;;;;;;21.91;40.90;100965.42;1730262;82;20908;-58
2022/10/13 08:56:24;;;;;;;4.73;2.00;;;;;;;21.96;41.33;100965.49;1729702;82;21453;-59
2022/10/13 08:58:53;;;;;;;;;;;;;;;22.02;39.52;100965.34;1732869;81;21272;-58
2022/10/13 09:01:26;;;;;;;3.50;1.73;;;;;;;21.77;39.46;100960.94;1699854;84;20083;-58
2022/10/13 09:04:31;;;;;;;4.00;1.60;;;;;;;21.52;40.66;100956.81;1730538;82;21264;-65
2022/10/13 09:07:13;;;;;;;5.43;2.10;;;;;;;21.45;40.24;100959.33;1730726;82;20939;-59
2022/10/13 09:09:41;;;;;;;3.80;1.47;;;;;;;21.40;40.25;100956.56;1687869;84;20911;-58
2022/10/13 09:12:11;;;;;;;5.77;1.80;;;;;;;21.39;39.71;100954.44;1724186;83;21035;-58
2022/10/13 09:14:39;;;;;;;4.87;1.77;;;;;;;21.51;40.31;100955.19;1699731;84;21059;-57
2022/10/13 09:17:22;;;;;;;4.33;1.80;;;;;;;21.81;39.70;100946.14;1730525;82;21121;-58
2022/10/13 09:20:17;;;;;;;4.20;1.63;;;;;;;22.16;38.25;100947.77;1699485;84;21053;-58
2022/10/13 09:22:46;;;;;;;5.00;1.80;;;;;;;22.42;37.43;100946.28;1730232;82;21014;-60
2022/10/13 09:25:20;;;;;;;3.30;1.50;;;;;;;22.48;37.03;100938.15;1679103;82;21125;-58
2022/10/13 09:27:52;;;;;;;3.63;1.50;;;;;;;22.75;36.00;100937.43;1730469;82;20974;-59
2022/10/13 09:30:42;;;;;;;4.87;1.70;;;;;;;22.88;35.16;100932.25;1730307;82;21141;-58
2022/10/13 09:33:14;;;;;;;3.50;1.30;;;;;;;22.62;36.44;100943.13;1695347;84;21014;-58
2022/10/13 09:35:47;;;;;;;5.47;1.80;;;;;;;22.27;34.93;100935.72;1719504;83;20908;-58
2022/10/13 09:38:19;;;;;;;3.27;1.40;;;;;;;22.11;36.19;100932.02;1699120;84;20915;-60
2022/10/13 09:41:10;;;;;;;3.63;1.40;;;;;;;22.22;35.61;100930.34;1730482;82;21117;-59
2022/10/13 09:43:46;;;;;;;4.73;1.50;;;;;;;22.29;36.67;100932.84;1729139;82;21864;-58
2022/10/13 09:46:50;;;;;;;3.77;1.87;;;;;;;22.36;36.33;100932.15;1698345;84;21396;-58
2022/10/13 09:49:33;;;;;;;4.57;1.50;;;;;;;22.50;35.75;100924.11;1730276;82;21006;-67
2022/10/13 09:52:13;;;;;;;3.30;1.47;;;;;;;22.93;35.03;100920.40;1695871;84;21018;-59
2022/10/13 09:54:50;;;;;;;3.77;1.40;;;;;;;23.35;34.49;100917.91;1724311;83;21020;-62
2022/10/13 09:57:37;;;;;;;2.60;1.43;;;;;;;23.70;34.15;100916.11;1699720;84;21237;-58
2022/10/13 10:00:23;;;;;;;4.00;1.70;;;;;;;23.87;33.48;100913.33;1730207;82;20970;-59
2022/10/13 10:03:01;;;;;;;4.77;2.20;;;;;;;23.72;33.64;100917.20;1730516;81;21024;-58
2022/10/13 10:05:50;;;;;;;3.50;1.80;;;;;;;23.06;34.44;100921.33;1730267;82;20935;-58
2022/10/13 10:09:02;;;;;;;4.07;1.63;;;;;;;22.31;36.23;100928.91;1733337;82;21124;-58
2022/10/13 10:11:36;;;;;;;3.23;1.43;;;;;;;21.65;37.57;100927.04;1729706;82;21231;-57
2022/10/13 10:14:17;;;;;;;2.70;1.40;;;;;;;20.88;37.89;100922.97;1730584;82;21003;-57
2022/10/13 10:17:03;;;;;;;2.93;1.47;;;;;;;20.20;37.88;100928.37;1730468;82;21043;-60
2022/10/13 10:20:07;;;;;;;3.97;1.40;;;;;;;19.38;38.69;100934.80;1730512;82;20954;-57
2022/10/13 10:22:56;;;;;;;4.10;1.63;;;;;;;18.68;40.05;100940.00;1700794;84;21521;-58
2022/10/13 10:25:34;;;;;;;3.83;1.50;;;;;;;18.08;41.49;100941.07;1730466;82;21240;-58
2022/10/13 10:28:28;;;;;;;3.00;1.47;;;;;;;17.66;43.20;100943.38;1729761;81;21057;-62
2022/10/13 10:31:20;;;;;;;4.90;1.33;;;;;;;17.50;44.17;100938.59;1732527;82;21034;-58
2022/10/13 10:34:19;;;;;;;3.27;1.60;;;;;;;17.44;44.82;100940.77;1731638;82;21101;-57
2022/10/13 10:37:14;;;;;;;2.30;1.10;;;;;;;17.33;44.92;100936.97;1730126;82;20947;-68
2022/10/13 10:39:52;;;;;;;3.47;1.30;;;;;;;17.21;44.76;100936.02;1730316;82;21287;-58
2022/10/13 10:42:27;;;;;;;3.93;1.30;;;;;;;17.10;45.67;100933.53;1732995;82;21001;-67
2022/10/13 10:44:54;;;;;;;2.93;1.40;;;;;;;17.02;46.97;100933.77;1730519;82;21089;-57
2022/10/13 10:47:29;;;;;;;4.80;1.43;;;;;;;17.07;46.67;100936.58;1733348;82;21030;-58
2022/10/13 10:50:03;;;;;;;2.83;1.43;;;;;;;17.38;47.10;100933.18;1729974;82;21340;-68
2022/10/13 10:52:56;;;;;;;2.63;1.27;;;;;;;17.90;45.45;100923.34;1730551;82;21460;-58
2022/10/13 10:55:44;;;;;;;3.07;1.10;;;;;;;18.43;44.25;100920.75;1730155;82;20952;-66
2022/10/13 10:58:42;;;;;;;3.77;1.20;;;;;;;19.01;43.73;100919.00;1720763;82;21093;-58
2022/10/13 11:01:30;;;;;;;5.47;1.70;;;;;;;19.32;41.40;100918.50;1729284;82;21019;-58
2022/10/13 11:04:39;;;;;;;2.53;0.80;;;;;;;19.11;41.34;100921.94;1733134;82;21045;-57
2022/10/13 11:07:32;;;;;;;4.10;1.30;;;;;;;18.82;41.81;100924.02;1730180;82;21201;-57
2022/10/13 11:10:05;;;;;;;3.03;1.53;;;;;;;18.42;42.34;100928.39;1732906;82;21453;-57
2022/10/13 11:12:55;;;;;;;2.53;1.20;;;;;;;18.17;43.84;100923.92;1730648;82;21011;-56
2022/10/13 11:15:27;;;;;;;3.60;1.20;;;;;;;17.98;43.67;100924.91;1698965;84;20919;-65
2022/10/13 11:17:55;;;;;;;;;;;;;;;17.78;44.97;100923.75;1733011;82;21344;-56
2022/10/13 11:20:37;;;;;;;3.40;1.10;;;;;;;17.61;44.02;100932.64;1730543;82;22048;-56
2022/10/13 11:23:20;;;;;;;2.67;0.90;;;;;;;17.42;43.23;100933.56;1700655;84;20947;-58
2022/10/13 11:25:47;;;;;;;;;;;;;;;17.21;43.00;100927.61;1732944;82;20935;-56
2022/10/13 11:28:42;;;;;;;3.20;1.50;;;;;;;17.04;43.30;100927.77;1672366;84;20458;-56
2022/10/13 11:31:30;;;;;;;4.23;1.60;;;;;;;16.83;43.27;100926.24;1730346;82;21441;-56
2022/10/13 11:34:01;;;;;;;4.50;1.57;;;;;;;16.65;44.31;100927.38;1733368;82;21243;-56
2022/10/13 11:36:52;;;;;;;4.53;1.77;;;;;;;16.74;45.04;100920.89;1729707;82;20978;-57
2022/10/13 11:39:36;;;;;;;7.72;2.98;;;;;;;16.86;44.46;100928.47;1730604;82;21003;-57
2022/10/13 11:42:40;;;;;;;3.70;1.60;;;;;;;17.08;45.03;100930.80;1732790;82;20963;-57
2022/10/13 11:45:28;;;;;;;3.40;0.90;;;;;;;17.36;43.33;100929.16;1730208;82;21050;-57
2022/10/13 11:48:15;;;;;;;3.23;1.03;;;;;;;17.67;42.01;100928.36;1733105;82;22420;-58
2022/10/13 11:51:27;;;;;;;3.87;1.30;;;;;;;17.68;42.44;100934.72;1731792;82;21550;-57